Time;durP1;ratioP1;P1;durP2;ratioP2;P2;SDS_P1;SDS_P2;PMS_P1;PMS_P2;Temp;Humidity;BMP_temperature;BMP_pressure;BME280_temperature;BME280_humidity;BME280_pressure;Samples;Min_cycle;Max_cycle;Signal;HPM_P1;HPM_P2
2022/06/14 00:02:59;;;;;;;;;;;;;;;12.16;100.00;99008.44;4240248;33;20296;-80
2022/06/14 00:05:44;;;;;;;;;;;;;;;12.13;100.00;99006.25;4230408;33;19938;-80
2022/06/14 00:08:29;;;;;;;;;;;;;;;12.07;100.00;99009.97;4240246;33;19942;-80
2022/06/14 00:11:15;;;;;;;;;;;;;;;11.97;100.00;99016.94;4230724;33;19970;-80
2022/06/14 00:13:42;;;;;;;;;;;;;;;12.00;100.00;99021.00;4241939;33;19960;-79
2022/06/14 00:16:09;;;;;;;;;;;;;;;11.98;100.00;99018.56;4240087;33;20300;-81
2022/06/14 00:18:35;;;;;;;;;;;;;;;12.01;100.00;99011.81;4242675;33;19960;-79
2022/06/14 00:24:43;;;;;;;;;;;;;;;12.06;100.00;99019.13;4238183;33;19977;-80
2022/06/14 00:27:10;;;;;;;;;;;;;;;12.02;100.00;99023.44;4238851;33;19938;-79
2022/06/14 00:29:36;;;;;;;;;;;;;;;11.98;100.00;99023.13;4240290;33;19942;-79
2022/06/14 00:32:02;;;;;;;;;;;;;;;11.93;100.00;99021.19;4240124;33;20291;-79
2022/06/14 00:34:28;;;;;;;;;;;;;;;11.94;100.00;99020.16;4241254;33;19945;-79
2022/06/14 00:36:56;;;;;;;;;;;;;;;11.94;100.00;99016.63;4239103;33;19942;-80
2022/06/14 00:39:22;;;;;;;;;;;;;;;11.91;100.00;99015.22;4225608;33;19945;-81
2022/06/14 00:41:51;;;;;;;;;;;;;;;11.88;100.00;99023.84;4239556;33;19953;-80
2022/06/14 00:44:18;;;;;;;;;;;;;;;11.83;100.00;99015.72;4241737;33;19938;-80
2022/06/14 00:46:47;;;;;;;;;;;;;;;11.78;100.00;99018.37;4240126;33;20084;-79
2022/06/14 00:49:17;;;;;;;;;;;;;;;11.78;100.00;99023.78;4237676;33;20325;-80
2022/06/14 00:51:48;;;;;;;;;;;;;;;11.75;100.00;99024.28;4239440;33;19961;-80
2022/06/14 00:54:19;;;;;;;;;;;;;;;11.71;100.00;99017.78;4241076;33;19942;-80
2022/06/14 00:56:48;;;;;;;;;;;;;;;11.72;100.00;99035.59;4239829;33;19967;-79
2022/06/14 00:59:17;;;;;;;;;;;;;;;11.63;100.00;99027.97;4225159;33;19952;-80
2022/06/14 01:01:45;;;;;;;;;;;;;;;11.67;100.00;99022.06;4227425;34;19971;-80
2022/06/14 01:04:14;;;;;;;;;;;;;;;11.62;100.00;99025.53;4232517;33;19941;-80
2022/06/14 01:06:47;;;;;;;;;;;;;;;11.58;100.00;99030.63;4227902;33;19957;-80
2022/06/14 01:09:20;;;;;;;;;;;;;;;11.57;100.00;99026.28;4218792;33;20151;-79
2022/06/14 01:12:01;;;;;;;;;;;;;;;11.57;100.00;99031.69;4227787;33;19988;-79
2022/06/14 01:14:33;;;;;;;;;;;;;;;11.49;100.00;99025.94;4239613;33;19963;-80
2022/06/14 01:16:59;;;;;;;;;;;;;;;11.50;100.00;99033.75;4241232;33;19949;-79
2022/06/14 01:19:26;;;;;;;;;;;;;;;11.50;100.00;99033.75;4240510;33;19960;-79
2022/06/14 01:21:53;;;;;;;;;;;;;;;11.52;100.00;99037.03;4239442;33;19945;-78
2022/06/14 01:24:21;;;;;;;;;;;;;;;11.46;100.00;99029.97;4240799;33;19938;-78
2022/06/14 01:26:47;;;;;;;;;;;;;;;11.46;100.00;99043.44;4237715;33;19951;-81
2022/06/14 01:29:13;;;;;;;;;;;;;;;11.45;100.00;99041.81;4227640;33;20002;-80
2022/06/14 01:31:40;;;;;;;;;;;;;;;11.44;100.00;99045.59;4241255;33;20065;-80
2022/06/14 01:34:08;;;;;;;;;;;;;;;11.42;100.00;99048.53;4240399;33;19959;-79
2022/06/14 01:36:39;;;;;;;;;;;;;;;11.33;100.00;99043.84;4227147;33;19951;-79
2022/06/14 01:39:09;;;;;;;;;;;;;;;11.33;100.00;99044.69;4240160;33;19934;-80
2022/06/14 01:41:59;;;;;;;;;;;;;;;11.30;100.00;99044.38;4239836;33;19975;-79
2022/06/14 01:44:28;;;;;;;;;;;;;;;11.21;100.00;99047.50;4206673;33;20389;-80
2022/06/14 01:47:03;;;;;;;;;;;;;;;11.30;100.00;99052.47;4240169;33;19952;-79
2022/06/14 01:52:30;;;;;;;;;;;;;;;11.27;100.00;99051.88;4239486;33;19951;-79
2022/06/14 01:55:15;;;;;;;;;;;;;;;11.21;100.00;99052.88;4240970;33;19942;-79
2022/06/14 01:57:41;;;;;;;;;;;;;;;11.21;100.00;99047.50;4239442;33;19937;-81
2022/06/14 02:00:10;;;;;;;;;;;;;;;11.16;100.00;99052.03;4239418;33;19946;-79
2022/06/14 02:04:37;;;;;;;;;;;;;;;11.14;100.00;99057.69;4240790;33;20186;-79
2022/06/14 02:05:47;;;;;;;;;;;;;;;11.14;100.00;99052.28;4239430;33;20344;-79
2022/06/14 02:08:16;;;;;;;;;;;;;;;11.07;100.00;99051.66;4240021;33;19950;-79
2022/06/14 02:10:49;;;;;;;;;;;;;;;11.06;100.00;99056.25;4241025;33;19976;-78
2022/06/14 02:13:15;;;;;;;;;;;;;;;11.12;100.00;99057.13;4242045;33;19934;-79
2022/06/14 02:15:46;;;;;;;;;;;;;;;11.14;100.00;99063.06;4241260;33;19947;-80
2022/06/14 02:18:13;;;;;;;;;;;;;;;11.14;100.00;99063.06;4241571;33;19975;-80
2022/06/14 02:21:06;;;;;;;;;;;;;;;11.11;100.00;99065.47;4227788;34;19938;-79
2022/06/14 02:23:42;;;;;;;;;;;;;;;11.18;100.00;99064.19;4240436;33;19950;-79
2022/06/14 02:26:12;;;;;;;;;;;;;;;11.23;100.00;99072.34;4242414;33;19942;-79
2022/06/14 02:28:42;;;;;;;;;;;;;;;11.21;100.00;99073.66;4229503;33;19938;-79
2022/06/14 02:31:11;;;;;;;;;;;;;;;11.14;100.00;99073.03;4241528;33;19945;-78
2022/06/14 02:33:56;;;;;;;;;;;;;;;11.14;100.00;99073.84;4229728;33;19953;-79
2022/06/14 02:36:46;;;;;;;;;;;;;;;11.23;100.00;99080.44;4243107;33;20010;-78
2022/06/14 02:39:15;;;;;;;;;;;;;;;11.17;100.00;99076.03;4232853;33;19947;-78
2022/06/14 02:41:42;;;;;;;;;;;;;;;11.23;100.00;99069.66;4242077;33;19963;-79
2022/06/14 02:44:11;;;;;;;;;;;;;;;11.13;100.00;99080.28;4241515;33;19946;-78
2022/06/14 02:46:37;;;;;;;;;;;;;;;11.00;100.00;99080.69;4240568;33;19952;-79
2022/06/14 02:49:11;;;;;;;;;;;;;;;11.11;100.00;99084.31;4243448;33;19971;-80
2022/06/14 02:51:45;;;;;;;;;;;;;;;11.22;100.00;99081.47;4242581;33;19942;-80
2022/06/14 02:54:15;;;;;;;;;;;;;;;11.10;100.00;99088.88;4229469;33;20283;-83
2022/06/14 02:56:59;;;;;;;;;;;;;;;11.23;100.00;99091.22;4232242;33;19946;-81
2022/06/14 02:59:50;;;;;;;;;;;;;;;11.24;100.00;99090.12;4231419;33;19941;-81
2022/06/14 03:02:41;;;;;;;;;;;;;;;11.13;100.00;99092.97;4241924;33;19946;-80
2022/06/14 03:05:45;;;;;;;;;;;;;;;11.21;100.00;99096.00;4239728;33;19946;-80
2022/06/14 03:08:33;;;;;;;;;;;;;;;11.24;100.00;99100.91;4231495;33;19946;-81
2022/06/14 03:11:34;;;;;;;;;;;;;;;11.13;100.00;99093.78;4241631;33;19949;-79
2022/06/14 03:14:29;;;;;;;;;;;;;;;10.88;100.00;99097.78;4241818;33;19954;-78
2022/06/14 03:17:20;;;;;;;;;;;;;;;10.95;100.00;99096.78;4240314;33;19942;-80
2022/06/14 03:20:05;;;;;;;;;;;;;;;11.11;100.00;99103.19;4227785;34;19946;-80
2022/06/14 03:22:31;;;;;;;;;;;;;;;11.08;100.00;99108.00;4228578;33;20053;-79
2022/06/14 03:25:06;;;;;;;;;;;;;;;11.20;100.00;99105.19;4215240;34;19998;-80
2022/06/14 03:27:34;;;;;;;;;;;;;;;11.04;100.00;99114.12;4226892;34;19938;-77
2022/06/14 03:30:00;;;;;;;;;;;;;;;11.24;100.00;99116.28;4215761;34;19931;-79
2022/06/14 03:32:43;;;;;;;;;;;;;;;11.22;100.00;99119.22;4214817;34;19942;-78
2022/06/14 03:35:36;;;;;;;;;;;;;;;11.17;100.00;99126.41;4234441;33;20007;-79
2022/06/14 03:38:06;;;;;;;;;;;;;;;11.17;100.00;99127.25;4227157;33;20295;-79
2022/06/14 03:40:33;;;;;;;;;;;;;;;11.24;100.00;99133.25;4242645;33;19942;-79
2022/06/14 03:43:00;;;;;;;;;;;;;;;11.08;100.00;99134.13;4239398;33;19942;-79
2022/06/14 03:45:32;;;;;;;;;;;;;;;11.21;100.00;99133.75;4228561;33;19953;-79
2022/06/14 03:47:59;;;;;;;;;;;;;;;11.18;100.00;99131.53;4241229;33;19945;-78
2022/06/14 03:50:37;;;;;;;;;;;;;;;11.31;100.00;99133.03;4242509;33;19942;-78
2022/06/14 03:53:22;;;;;;;;;;;;;;;11.34;100.00;99137.13;4227900;33;19975;-79
2022/06/14 03:56:06;;;;;;;;;;;;;;;11.41;100.00;99137.78;4242626;33;20293;-79
2022/06/14 03:58:47;;;;;;;;;;;;;;;11.32;100.00;99139.28;4239458;33;20300;-79
2022/06/14 04:01:21;;;;;;;;;;;;;;;11.21;100.00;99141.81;4241704;33;19985;-78
2022/06/14 04:04:07;;;;;;;;;;;;;;;11.36;100.00;99141.22;4241581;33;19948;-78
2022/06/14 04:06:39;;;;;;;;;;;;;;;11.37;100.00;99137.44;4240938;33;20023;-79
2022/06/14 04:09:09;;;;;;;;;;;;;;;11.35;100.00;99138.78;4229137;33;19947;-79
2022/06/14 04:11:47;;;;;;;;;;;;;;;11.38;100.00;99140.97;4241893;33;19950;-79
2022/06/14 04:14:29;;;;;;;;;;;;;;;11.29;100.00;99137.88;4240647;33;19981;-79
2022/06/14 04:17:11;;;;;;;;;;;;;;;11.34;100.00;99145.22;4228950;33;19942;-78
2022/06/14 04:19:40;;;;;;;;;;;;;;;11.36;100.00;99140.37;4224892;33;19942;-78
2022/06/14 04:22:17;;;;;;;;;;;;;;;11.23;100.00;99142.41;4228590;33;19954;-78
2022/06/14 04:24:52;;;;;;;;;;;;;;;11.44;100.00;99142.66;4241402;33;20032;-78
2022/06/14 04:27:30;;;;;;;;;;;;;;;11.23;100.00;99152.38;4226608;33;20317;-80
2022/06/14 04:30:02;;;;;;;;;;;;;;;11.13;100.00;99139.56;4228262;33;19937;-81
2022/06/14 04:32:34;;;;;;;;;;;;;;;11.27;100.00;99148.91;4241863;33;19938;-79
2022/06/14 04:35:03;;;;;;;;;;;;;;;11.18;100.00;99145.03;4238996;33;19946;-84
2022/06/14 04:37:38;;;;;;;;;;;;;;;11.43;100.00;99141.03;4242162;33;20860;-80
2022/06/14 04:40:12;;;;;;;;;;;;;;;11.45;100.00;99145.09;4229398;33;19996;-74
2022/06/14 04:42:40;;;;;;;;;;;;;;;11.51;100.00;99143.25;4226313;33;19934;-82
2022/06/14 04:45:07;;;;;;;;;;;;;;;11.45;100.00;99145.09;4241484;33;19967;-79
2022/06/14 04:47:39;;;;;;;;;;;;;;;11.51;100.00;99153.25;4241024;33;19938;-78
2022/06/14 04:50:09;;;;;;;;;;;;;;;11.57;100.00;99152.22;4240844;33;20087;-79
2022/06/14 04:52:45;;;;;;;;;;;;;;;11.69;100.00;99147.50;4239326;33;19946;-79
2022/06/14 04:55:16;;;;;;;;;;;;;;;11.78;100.00;99142.47;4230830;33;19938;-79
2022/06/14 04:57:58;;;;;;;;;;;;;;;11.71;100.00;99147.22;4227259;34;19982;-79
2022/06/14 05:00:30;;;;;;;;;;;;;;;11.78;100.00;99142.47;4227832;34;19949;-79
2022/06/14 05:03:00;;;;;;;;;;;;;;;11.90;100.00;99145.00;4226667;34;20350;-79
2022/06/14 05:05:33;;;;;;;;;;;;;;;12.05;100.00;99163.25;4231520;33;19950;-79
2022/06/14 05:08:05;;;;;;;;;;;;;;;11.98;100.00;99163.44;4241122;33;19946;-79
2022/06/14 05:10:34;;;;;;;;;;;;;;;12.03;100.00;99165.38;4227697;33;19934;-79
2022/06/14 05:13:21;;;;;;;;;;;;;;;12.18;100.00;99162.81;4227323;33;19938;-79
2022/06/14 05:15:59;;;;;;;;;;;;;;;12.10;100.00;99161.41;4234580;33;19950;-78
2022/06/14 05:18:29;;;;;;;;;;;;;;;11.99;100.00;99157.78;4240143;33;20336;-78
2022/06/14 05:21:05;;;;;;;;;;;;;;;12.18;100.00;99162.81;4226217;33;19958;-81
2022/06/14 05:23:38;;;;;;;;;;;;;;;12.29;100.00;99158.34;4228283;33;20329;-78
2022/06/14 05:26:10;;;;;;;;;;;;;;;12.40;100.00;99161.91;4228620;33;19938;-80
2022/06/14 05:28:44;;;;;;;;;;;;;;;12.50;100.00;99159.31;4238372;33;20302;-88
2022/06/14 05:31:23;;;;;;;;;;;;;;;12.54;100.00;99149.63;4228383;33;19959;-80
2022/06/14 05:33:54;;;;;;;;;;;;;;;12.53;100.00;99153.38;4240864;33;19945;-80
2022/06/14 05:36:29;;;;;;;;;;;;;;;12.46;100.00;99152.78;4238855;33;19941;-81
2022/06/14 05:38:59;;;;;;;;;;;;;;;12.38;100.00;99153.25;4240135;33;19963;-81
2022/06/14 05:41:32;;;;;;;;;;;;;;;12.29;100.00;99159.12;4240983;33;19941;-80
2022/06/14 05:44:10;;;;;;;;;;;;;;;12.47;100.00;99146.31;4237694;33;19963;-81
2022/06/14 05:46:41;;;;;;;;;;;;;;;12.35;100.00;99154.59;4243211;33;20340;-79
2022/06/14 05:49:14;;;;;;;;;;;;;;;12.37;100.00;99165.16;4243511;33;20329;-79
2022/06/14 05:51:48;;;;;;;;;;;;;;;12.57;100.00;99165.28;4243788;33;19938;-80
2022/06/14 05:54:20;;;;;;;;;;;;;;;12.58;100.00;99169.63;4240612;33;20288;-80
2022/06/14 05:56:54;;;;;;;;;;;;;;;12.67;100.00;99159.97;4241500;33;19960;-79
2022/06/14 05:59:21;;;;;;;;;;;;;;;12.74;100.00;99165.13;4244274;33;19941;-79
2022/06/14 06:01:50;;;;;;;;;;;;;;;12.72;100.00;99178.91;4206762;33;20249;-84
2022/06/14 06:04:19;;;;;;;;;;;;;;;12.91;100.00;99186.59;4229759;33;19949;-79
2022/06/14 06:06:48;;;;;;;;;;;;;;;13.05;100.00;99174.25;4242377;33;20329;-79
2022/06/14 06:09:26;;;;;;;;;;;;;;;13.21;100.00;99169.72;4240922;33;19977;-79
2022/06/14 06:11:58;;;;;;;;;;;;;;;13.32;100.00;99180.56;4225983;33;19954;-80
2022/06/14 06:14:34;;;;;;;;;;;;;;;13.27;100.00;99174.09;4228609;33;19942;-80
2022/06/14 06:17:18;;;;;;;;;;;;;;;13.06;100.00;99162.34;4242288;33;19952;-79
2022/06/14 06:19:57;;;;;;;;;;;;;;;13.21;100.00;99174.28;4223511;33;19989;-81
2022/06/14 06:22:23;;;;;;;;;;;;;;;13.30;100.00;99167.31;4241578;33;20380;-82
2022/06/14 06:24:49;;;;;;;;;;;;;;;13.51;100.00;99159.31;4231291;33;19951;-82
2022/06/14 06:27:15;;;;;;;;;;;;;;;13.55;100.00;99152.28;4242266;33;19989;-82
2022/06/14 06:29:48;;;;;;;;;;;;;;;13.60;100.00;99160.41;4243561;33;19967;-81
2022/06/14 06:32:16;;;;;;;;;;;;;;;13.81;100.00;99156.66;4244116;33;19938;-80
2022/06/14 06:34:44;;;;;;;;;;;;;;;13.59;100.00;99164.19;4245462;33;19976;-80
2022/06/14 06:37:10;;;;;;;;;;;;;;;13.70;100.00;99182.09;4241736;33;19938;-81
2022/06/14 06:39:43;;;;;;;;;;;;;;;13.62;100.00;99171.78;4230153;33;19933;-79
2022/06/14 06:42:09;;;;;;;;;;;;;;;13.89;100.00;99174.28;4239469;33;20339;-81
2022/06/14 06:44:53;;;;;;;;;;;;;;;14.02;100.00;99177.56;4231841;33;19963;-74
2022/06/14 06:47:26;;;;;;;;;;;;;;;13.75;100.00;99176.72;4237733;33;19952;-75
2022/06/14 06:49:59;;;;;;;;;;;;;;;13.93;100.00;99171.88;4240570;33;19954;-74
2022/06/14 06:52:31;;;;;;;;;;;;;;;13.96;100.00;99174.84;4228756;33;19953;-74
2022/06/14 06:55:04;;;;;;;;;;;;;;;14.15;100.00;99177.84;4239327;33;19958;-75
2022/06/14 06:57:33;;;;;;;;;;;;;;;14.19;100.00;99182.72;4223327;33;19954;-75
2022/06/14 06:59:59;;;;;;;;;;;;;;;14.42;100.00;99187.59;4236951;33;19958;-73
2022/06/14 07:02:32;;;;;;;;;;;;;;;14.67;100.00;99180.56;4239048;33;19950;-76
2022/06/14 07:05:03;;;;;;;;;;;;;;;14.63;100.00;99193.03;4240491;33;19953;-71
2022/06/14 07:07:29;;;;;;;;;;;;;;;14.68;100.00;99190.34;4242812;33;19941;-72
2022/06/14 07:09:59;;;;;;;;;;;;;;;14.78;100.00;99195.72;4234394;33;19960;-72
2022/06/14 07:12:30;;;;;;;;;;;;;;;14.70;100.00;99201.72;4225935;34;20280;-72
2022/06/14 07:15:09;;;;;;;;;;;;;;;14.66;100.00;99181.66;4236720;33;19945;-72
2022/06/14 07:17:44;;;;;;;;;;;;;;;14.84;100.00;99177.59;4242945;33;19934;-73
2022/06/14 07:20:11;;;;;;;;;;;;;;;14.74;100.00;99183.81;4241569;33;19975;-72
2022/06/14 07:22:49;;;;;;;;;;;;;;;15.00;100.00;99172.94;4242872;33;19971;-72
2022/06/14 07:25:20;;;;;;;;;;;;;;;15.06;100.00;99179.94;4241609;33;19956;-72
2022/06/14 07:27:54;;;;;;;;;;;;;;;15.17;100.00;99181.56;4229785;33;20721;-71
2022/06/14 07:30:25;;;;;;;;;;;;;;;15.16;100.00;99174.50;4228421;33;20265;-72
2022/06/14 07:32:54;;;;;;;;;;;;;;;15.18;100.00;99166.91;4235591;33;19946;-74
2022/06/14 07:35:25;;;;;;;;;;;;;;;15.02;100.00;99168.84;4240936;33;19941;-73
2022/06/14 07:37:58;;;;;;;;;;;;;;;14.85;100.00;99174.59;4224884;33;19946;-72
2022/06/14 07:40:30;;;;;;;;;;;;;;;15.04;100.00;99171.28;4226942;33;19942;-73
2022/06/14 07:43:01;;;;;;;;;;;;;;;15.17;100.00;99170.72;4241547;33;19952;-74
2022/06/14 07:45:33;;;;;;;;;;;;;;;15.12;100.00;99178.84;4241686;33;19949;-73
2022/06/14 07:48:03;;;;;;;;;;;;;;;14.67;100.00;99167.03;4244392;33;19951;-72
2022/06/14 07:50:38;;;;;;;;;;;;;;;15.13;100.00;99169.63;4239218;33;19941;-73
2022/06/14 07:53:11;;;;;;;;;;;;;;;15.41;100.00;99167.34;4231936;33;19950;-73
2022/06/14 07:55:39;;;;;;;;;;;;;;;15.56;100.00;99159.12;4241851;33;19938;-77
2022/06/14 07:58:10;;;;;;;;;;;;;;;15.53;100.00;99164.31;4243801;33;19964;-78
2022/06/14 08:03:28;;;;;;;;;;;;;;;15.67;100.00;99167.22;4244253;33;19960;-79
2022/06/14 08:05:57;;;;;;;;;;;;;;;15.92;100.00;99158.97;4243926;33;19947;-79
2022/06/14 08:08:30;;;;;;;;;;;;;;;15.93;100.00;99166.00;4228670;33;19955;-83
2022/06/14 08:11:04;;;;;;;;;;;;;;;15.61;100.00;99171.88;4345216;28;19938;-71
2022/06/14 08:13:43;;;;;;;;;;;;;;;15.49;100.00;99174.91;4244764;33;19959;-71
2022/06/14 08:16:14;;;;;;;;;;;;;;;15.47;100.00;99182.50;4255209;33;19957;-70
2022/06/14 08:18:57;;;;;;;;;;;;;;;15.39;100.00;99188.53;4256106;33;19955;-70
2022/06/14 08:21:24;;;;;;;;;;;;;;;15.15;100.00;99194.56;4254774;33;19955;-71
2022/06/14 08:23:52;;;;;;;;;;;;;;;14.97;100.00;99187.03;4254410;33;19955;-70
2022/06/14 08:26:27;;;;;;;;;;;;;;;15.20;100.00;99194.53;4243466;33;20270;-70
2022/06/14 08:29:01;;;;;;;;;;;;;;;15.13;100.00;99202.16;4255795;33;19952;-70
2022/06/14 08:31:36;;;;;;;;;;;;;;;15.41;100.00;99175.47;4241313;33;20296;-72
2022/06/14 08:34:09;;;;;;;;;;;;;;;15.72;100.00;99168.00;4256067;33;19948;-71
2022/06/14 08:36:48;;;;;;;;;;;;;;;15.55;100.00;99181.94;4255027;33;20355;-71
2022/06/14 08:39:18;;;;;;;;;;;;;;;15.31;100.00;99170.13;4254382;33;19980;-71
2022/06/14 08:41:57;;;;;;;;;;;;;;;15.42;100.00;99166.25;4255498;33;19954;-71
2022/06/14 08:44:28;;;;;;;;;;;;;;;15.83;100.00;99166.09;4255432;33;19988;-71
2022/06/14 08:47:03;;;;;;;;;;;;;;;15.82;100.00;99175.31;4255076;33;19980;-71
2022/06/14 08:49:45;;;;;;;;;;;;;;;15.72;100.00;99169.94;4234185;33;19946;-71
2022/06/14 08:52:21;;;;;;;;;;;;;;;15.88;100.00;99198.63;4241432;33;19952;-74
2022/06/14 08:55:06;;;;;;;;;;;;;;;15.82;100.00;99183.44;4244524;33;19945;-74
2022/06/14 08:57:47;;;;;;;;;;;;;;;15.90;100.00;99188.28;4244740;33;20396;-73
2022/06/14 09:00:18;;;;;;;;;;;;;;;16.25;100.00;99186.44;4245874;33;19959;-75
2022/06/14 09:03:08;;;;;;;;;;;;;;;16.03;100.00;99183.31;4247929;33;20851;-74
2022/06/14 09:05:35;;;;;;;;;;;;;;;15.73;100.00;99179.66;4234565;33;19990;-73
2022/06/14 09:08:20;;;;;;;;;;;;;;;15.68;100.00;99187.84;4251712;33;19941;-74
2022/06/14 09:11:06;;;;;;;;;;;;;;;15.41;100.00;99202.63;4253780;33;19951;-73
2022/06/14 09:13:35;;;;;;;;;;;;;;;15.26;100.00;99204.28;4240148;33;19960;-74
2022/06/14 09:16:07;;;;;;;;;;;;;;;15.29;100.00;99215.69;4255407;33;19971;-73
2022/06/14 09:18:36;;;;;;;;;;;;;;;15.22;100.00;99210.53;4242449;33;19929;-73
2022/06/14 09:21:23;;;;;;;;;;;;;;;15.31;100.00;99208.91;4254271;33;19945;-73
2022/06/14 09:23:59;;;;;;;;;;;;;;;15.23;100.00;99202.13;4242309;33;19947;-73
2022/06/14 09:26:29;;;;;;;;;;;;;;;15.27;100.00;99197.00;4254666;33;19977;-74
2022/06/14 09:29:04;;;;;;;;;;;;;;;15.43;100.00;99203.16;4245794;33;19983;-73
2022/06/14 09:31:47;;;;;;;;;;;;;;;15.56;100.00;99189.00;4237975;33;20319;-74
2022/06/14 09:34:22;;;;;;;;;;;;;;;15.50;100.00;99190.09;4240687;33;19942;-75
2022/06/14 09:37:10;;;;;;;;;;;;;;;15.67;100.00;99199.78;4231551;33;19954;-72
2022/06/14 09:39:55;;;;;;;;;;;;;;;16.08;100.00;99194.16;4253317;33;19955;-73
2022/06/14 09:42:43;;;;;;;;;;;;;;;16.07;100.00;99192.56;4249341;33;20674;-73
2022/06/14 09:45:28;;;;;;;;;;;;;;;16.30;100.00;99196.44;4252963;33;19951;-71
2022/06/14 09:47:58;;;;;;;;;;;;;;;16.29;100.00;99208.41;4249803;33;20943;-71
2022/06/14 09:50:24;;;;;;;;;;;;;;;16.41;100.00;99183.59;4234227;33;19958;-72
2022/06/14 09:53:14;;;;;;;;;;;;;;;15.89;100.00;99192.13;4247193;33;20022;-71
2022/06/14 09:55:59;;;;;;;;;;;;;;;16.00;100.00;99202.91;4240796;33;19954;-72
2022/06/14 09:58:25;;;;;;;;;;;;;;;15.81;100.00;99203.53;4240599;33;19977;-72
2022/06/14 10:00:58;;;;;;;;;;;;;;;15.84;100.00;99211.13;4243460;33;19949;-73
2022/06/14 10:03:38;;;;;;;;;;;;;;;16.02;100.00;99190.69;4248449;33;19971;-72
2022/06/14 10:06:14;;;;;;;;;;;;;;;16.52;100.00;99187.84;4241145;33;19946;-72
2022/06/14 10:08:43;;;;;;;;;;;;;;;16.65;100.00;99198.03;4239068;33;19947;-73
2022/06/14 10:11:21;;;;;;;;;;;;;;;16.23;100.00;99218.50;4240787;33;19962;-72
2022/06/14 10:14:07;;;;;;;;;;;;;;;16.01;100.00;99199.09;4241032;33;19938;-73
2022/06/14 10:16:48;;;;;;;;;;;;;;;16.19;100.00;99200.34;4239471;33;20082;-72
2022/06/14 10:19:14;;;;;;;;;;;;;;;16.42;100.00;99187.91;4239363;33;19972;-73
2022/06/14 10:21:49;;;;;;;;;;;;;;;16.57;100.00;99195.94;4239909;33;19948;-73
2022/06/14 10:24:42;;;;;;;;;;;;;;;16.73;100.00;99198.53;4239441;33;19987;-74
2022/06/14 10:30:11;;;;;;;;;;;;;;;17.17;100.00;99194.88;4240350;33;19937;-72
2022/06/14 10:32:56;;;;;;;;;;;;;;;16.71;100.00;99202.34;4243107;33;19945;-73
2022/06/14 10:35:41;;;;;;;;;;;;;;;16.90;100.00;99228.88;4241351;33;20023;-72
2022/06/14 10:38:16;;;;;;;;;;;;;;;17.23;100.00;99201.84;4243513;33;20008;-73
2022/06/14 10:40:54;;;;;;;;;;;;;;;17.12;100.00;99217.50;4243010;33;19934;-74
2022/06/14 10:43:36;;;;;;;;;;;;;;;17.05;100.00;99198.78;4250586;33;20091;-73
2022/06/14 10:46:22;;;;;;;;;;;;;;;16.74;100.00;99206.41;4257628;33;19941;-73
2022/06/14 10:49:06;;;;;;;;;;;;;;;16.92;100.00;99202.19;4257445;33;19964;-73
2022/06/14 10:51:45;;;;;;;;;;;;;;;17.04;100.00;99218.94;4257478;33;19951;-73
2022/06/14 10:54:11;;;;;;;;;;;;;;;16.98;100.00;99205.69;4256337;33;19934;-73
2022/06/14 10:56:56;;;;;;;;;;;;;;;17.40;100.00;99207.63;4256862;33;19955;-72
2022/06/14 10:59:34;;;;;;;;;;;;;;;17.84;100.00;99204.91;4244731;33;20271;-73
2022/06/14 11:02:20;;;;;;;;;;;;;;;17.95;100.00;99230.97;4247384;33;20805;-73
2022/06/14 11:04:54;;;;;;;;;;;;;;;17.55;100.00;99224.88;4243132;33;19985;-72
2022/06/14 11:07:43;;;;;;;;;;;;;;;17.05;100.00;99204.22;4241806;33;19942;-72
2022/06/14 11:10:15;;;;;;;;;;;;;;;16.94;100.00;99216.31;4245215;33;20069;-72
2022/06/14 11:12:49;;;;;;;;;;;;;;;16.94;100.00;99205.41;4243890;33;20301;-73
2022/06/14 11:15:16;;;;;;;;;;;;;;;16.77;100.00;99237.63;4241057;33;19985;-73
2022/06/14 11:17:51;;;;;;;;;;;;;;;16.80;100.00;99215.31;4242873;33;19945;-72
2022/06/14 11:20:17;;;;;;;;;;;;;;;17.13;100.00;99201.97;4242209;33;19955;-73
2022/06/14 11:22:49;;;;;;;;;;;;;;;18.05;100.00;99206.28;4249315;33;20339;-73
2022/06/14 11:25:15;;;;;;;;;;;;;;;18.38;98.44;99181.81;4241070;33;19989;-72
2022/06/14 11:27:42;;;;;;;;;;;;;;;18.48;91.57;99219.78;4242375;33;19949;-72
2022/06/14 11:30:13;;;;;;;;;;;;;;;18.12;88.95;99206.69;4242399;33;19937;-72
2022/06/14 11:32:59;;;;;;;;;;;;;;;17.50;97.17;99206.69;4233332;33;19937;-72
2022/06/14 11:35:47;;;;;;;;;;;;;;;18.05;94.20;99222.63;4256654;33;19978;-73
2022/06/14 11:38:13;;;;;;;;;;;;;;;17.82;96.04;99224.25;4256237;33;19937;-73
2022/06/14 11:40:48;;;;;;;;;;;;;;;17.56;100.00;99229.25;4235690;33;19942;-73
2022/06/14 11:43:17;;;;;;;;;;;;;;;17.51;100.00;99212.97;4238670;33;20284;-72
2022/06/14 11:45:50;;;;;;;;;;;;;;;17.05;100.00;99211.56;4253355;33;19941;-73
2022/06/14 11:48:38;;;;;;;;;;;;;;;17.11;100.00;99253.16;4244440;33;20003;-74
2022/06/14 11:51:10;;;;;;;;;;;;;;;17.29;97.95;99227.91;4244513;33;19933;-73
2022/06/14 11:53:55;;;;;;;;;;;;;;;17.96;90.83;99216.22;4236880;33;19960;-73
2022/06/14 11:56:34;;;;;;;;;;;;;;;18.74;86.62;99216.63;4251940;33;19950;-73
2022/06/14 11:59:23;;;;;;;;;;;;;;;19.30;86.77;99194.91;4240544;33;19946;-73
2022/06/14 12:02:02;;;;;;;;;;;;;;;18.74;89.71;99200.28;4239916;33;19967;-73
2022/06/14 12:04:35;;;;;;;;;;;;;;;18.57;96.25;99232.75;4241309;33;19937;-71
2022/06/14 12:07:08;;;;;;;;;;;;;;;18.15;98.26;99208.03;4226996;33;19945;-72
2022/06/14 12:09:34;;;;;;;;;;;;;;;18.29;95.94;99225.25;4240445;33;19950;-73
2022/06/14 12:12:00;;;;;;;;;;;;;;;18.61;89.57;99210.03;4246167;33;19950;-73
2022/06/14 12:14:34;;;;;;;;;;;;;;;18.71;81.36;99222.69;4249569;33;19959;-73
2022/06/14 12:17:13;;;;;;;;;;;;;;;18.66;87.28;99214.59;4228124;33;20069;-73
2022/06/14 12:19:41;;;;;;;;;;;;;;;18.65;89.79;99212.97;4240777;33;20789;-73
2022/06/14 12:22:28;;;;;;;;;;;;;;;18.02;98.71;99231.37;4233690;33;19944;-73
2022/06/14 12:27:44;;;;;;;;;;;;;;;17.35;100.00;99174.25;4245575;33;19957;-72
2022/06/14 12:30:16;;;;;;;;;;;;;;;18.08;99.89;99241.13;4239481;33;19959;-72
2022/06/14 12:32:46;;;;;;;;;;;;;;;18.24;89.79;99208.19;4240594;33;19939;-74
2022/06/14 12:35:19;;;;;;;;;;;;;;;18.60;80.25;99213.06;4242210;33;19953;-73
2022/06/14 12:37:51;;;;;;;;;;;;;;;18.57;83.65;99224.56;4250254;33;19985;-73
2022/06/14 12:40:21;;;;;;;;;;;;;;;18.33;88.04;99217.28;4245340;33;19973;-73
2022/06/14 12:42:50;;;;;;;;;;;;;;;18.46;92.44;99222.00;4246768;33;19987;-73
2022/06/14 12:45:20;;;;;;;;;;;;;;;18.24;98.42;99213.66;4244815;33;19981;-73
2022/06/14 12:48:22;;;;;;;;;;;;;;;18.26;100.00;99211.44;4232346;33;19950;-73
2022/06/14 12:50:50;;;;;;;;;;;;;;;18.39;100.00;99216.13;4199920;34;19948;-73
2022/06/14 12:53:35;;;;;;;;;;;;;;;18.79;94.61;99211.09;4238390;33;19985;-73
2022/06/14 12:56:07;;;;;;;;;;;;;;;19.29;83.61;99213.22;4246042;33;20275;-73
2022/06/14 12:58:42;;;;;;;;;;;;;;;19.65;78.74;99217.13;4247857;33;19945;-73
2022/06/14 13:01:22;;;;;;;;;;;;;;;20.17;73.55;99206.72;4239864;33;19942;-74
2022/06/14 13:03:55;;;;;;;;;;;;;;;20.42;70.25;99196.28;4249730;33;19963;-74
2022/06/14 13:06:21;;;;;;;;;;;;;;;19.67;72.88;99220.38;4250968;33;19938;-74
2022/06/14 13:08:53;;;;;;;;;;;;;;;19.42;73.42;99203.41;4234927;33;19959;-74
2022/06/14 13:11:58;;;;;;;;;;;;;;;19.49;77.98;99203.00;4244555;33;19950;-77
2022/06/14 13:14:39;;;;;;;;;;;;;;;18.76;83.62;99206.22;4204860;34;19954;-74
2022/06/14 13:17:07;;;;;;;;;;;;;;;18.36;90.05;99222.16;4196315;34;20012;-74
2022/06/14 13:19:38;;;;;;;;;;;;;;;17.95;95.00;99223.59;4196097;34;19983;-75
2022/06/14 13:22:17;;;;;;;;;;;;;;;18.02;95.11;99234.09;4197144;34;20400;-75
2022/06/14 13:24:55;;;;;;;;;;;;;;;17.75;94.88;99208.28;4207832;34;19942;-74
2022/06/14 13:27:28;;;;;;;;;;;;;;;17.66;92.90;99204.59;4207996;34;19957;-75
2022/06/14 13:30:09;;;;;;;;;;;;;;;17.70;95.64;99219.25;4196762;34;19947;-76
2022/06/14 13:32:40;;;;;;;;;;;;;;;17.63;93.02;99188.88;4201401;34;19964;-74